Time;durP1;ratioP1;P1;durP2;ratioP2;P2;SDS_P1;SDS_P2;PMS_P1;PMS_P2;Temp;Humidity;BMP_temperature;BMP_pressure;BME280_temperature;BME280_humidity;BME280_pressure;Samples;Min_cycle;Max_cycle;Signal;HPM_P1;HPM_P2
2022/11/13 00:00:34;;;;;;;7.55;4.03;;;12.50;74.30;;;;;;6338065;22;20074;-68
2022/11/13 00:02:59;;;;;;;5.07;3.55;;;12.50;74.10;;;;;;6338548;22;20492;-68
2022/11/13 00:05:25;;;;;;;6.10;3.47;;;12.50;73.80;;;;;;6338921;22;20026;-69
2022/11/13 00:07:51;;;;;;;5.35;3.88;;;12.60;73.90;;;;;;6340119;22;20010;-68
2022/11/13 00:10:16;;;;;;;6.07;3.75;;;12.60;73.70;;;;;;6340174;22;19995;-68
2022/11/13 00:12:42;;;;;;;9.23;3.80;;;12.60;73.90;;;;;;6340169;22;20059;-68
2022/11/13 00:15:08;;;;;;;6.47;4.10;;;12.60;73.80;;;;;;6339992;22;20444;-68
2022/11/13 00:17:34;;;;;;;8.25;4.18;;;12.60;74.00;;;;;;6339820;22;19998;-68
2022/11/13 00:19:59;;;;;;;7.38;3.50;;;12.60;74.20;;;;;;6340134;22;20073;-68
2022/11/13 00:22:25;;;;;;;6.95;4.15;;;12.60;74.40;;;;;;6340292;22;20023;-68
2022/11/13 00:24:51;;;;;;;7.15;4.20;;;12.60;74.50;;;;;;6340190;22;20061;-68
2022/11/13 00:27:16;;;;;;;8.00;4.30;;;12.60;74.80;;;;;;6340044;22;20097;-68
2022/11/13 00:29:42;;;;;;;8.40;4.32;;;12.60;74.40;;;;;;6339975;22;20002;-68
2022/11/13 00:32:08;;;;;;;7.55;4.32;;;12.70;74.10;;;;;;6340178;22;20006;-68
2022/11/13 00:34:33;;;;;;;6.95;4.35;;;12.70;74.00;;;;;;6339971;22;19999;-68
2022/11/13 00:36:59;;;;;;;9.68;4.80;;;12.70;73.50;;;;;;6312561;22;19999;-68
2022/11/13 00:39:25;;;;;;;8.98;4.20;;;12.70;73.20;;;;;;6339935;22;20002;-68
2022/11/13 00:41:50;;;;;;;8.45;5.15;;;12.80;72.40;;;;;;6339908;22;20451;-68
2022/11/13 00:44:16;;;;;;;9.40;4.75;;;12.80;72.30;;;;;;6339810;22;20029;-68
2022/11/13 00:46:41;;;;;;;6.10;4.40;;;12.80;72.20;;;;;;6339879;22;20042;-68
2022/11/13 00:49:07;;;;;;;12.00;5.20;;;12.80;72.30;;;;;;6339969;22;20425;-68
2022/11/13 00:51:33;;;;;;;7.15;4.70;;;12.80;72.70;;;;;;6339668;22;20436;-67
2022/11/13 00:53:59;;;;;;;11.55;4.93;;;12.80;72.90;;;;;;6339886;22;20003;-68
2022/11/13 00:56:24;;;;;;;11.05;4.50;;;12.80;73.00;;;;;;6339916;22;20320;-68
2022/11/13 00:58:50;;;;;;;9.23;4.55;;;12.80;72.70;;;;;;6340022;22;20007;-68
2022/11/13 01:01:18;;;;;;;8.23;4.55;;;12.80;73.00;;;;;;6339711;22;20003;-68
2022/11/13 01:03:44;;;;;;;7.47;4.55;;;12.80;72.80;;;;;;6312698;22;20056;-68
2022/11/13 01:06:18;;;;;;;6.97;4.90;;;12.80;72.10;;;;;;6339734;22;20003;-68
2022/11/13 01:08:44;;;;;;;10.57;4.90;;;12.80;72.20;;;;;;6340129;22;20010;-68
2022/11/13 01:11:17;;;;;;;7.63;5.07;;;12.80;72.10;;;;;;6339782;22;20047;-68
2022/11/13 01:13:45;;;;;;;13.88;4.72;;;12.90;72.10;;;;;;6339628;22;19998;-68
2022/11/13 01:16:12;;;;;;;9.15;4.75;;;12.80;71.60;;;;;;6339546;22;20359;-68
2022/11/13 01:18:38;;;;;;;8.25;4.82;;;12.90;72.00;;;;;;6339642;22;19995;-68
2022/11/13 01:21:08;;;;;;;7.22;4.75;;;12.80;72.10;;;;;;6339425;22;20425;-68
2022/11/13 01:23:35;;;;;;;7.88;5.05;;;12.90;72.40;;;;;;6339338;22;20010;-68
2022/11/13 01:26:31;;;;;;;8.32;4.63;;;12.80;72.40;;;;;;6339603;22;20325;-68
2022/11/13 01:28:58;;;;;;;7.43;4.43;;;12.80;72.80;;;;;;6334927;22;20011;-68
2022/11/13 01:31:30;;;;;;;8.35;4.45;;;12.80;73.20;;;;;;6339176;22;20002;-68
2022/11/13 01:33:56;;;;;;;8.37;4.83;;;12.80;73.30;;;;;;6339644;22;20051;-68
2022/11/13 01:36:24;;;;;;;7.63;4.55;;;12.80;73.30;;;;;;6339613;22;20676;-68
2022/11/13 01:38:51;;;;;;;6.43;4.20;;;12.80;73.50;;;;;;6340056;22;20009;-69
2022/11/13 01:41:20;;;;;;;7.13;3.92;;;12.70;73.70;;;;;;6339617;22;20010;-68
2022/11/13 01:43:46;;;;;;;7.88;3.88;;;12.70;73.70;;;;;;6339075;22;20120;-68
2022/11/13 01:46:20;;;;;;;6.93;3.78;;;12.70;73.20;;;;;;6339358;22;20030;-68
2022/11/13 01:49:14;;;;;;;11.05;4.00;;;12.80;73.20;;;;;;6339326;22;20018;-68
2022/11/13 01:51:51;;;;;;;8.75;4.82;;;12.70;73.30;;;;;;6339359;22;20006;-68
2022/11/13 01:54:22;;;;;;;7.18;4.47;;;12.70;73.40;;;;;;6339062;22;20425;-68
2022/11/13 01:56:49;;;;;;;8.15;4.32;;;12.70;73.70;;;;;;6339498;22;20326;-68
2022/11/13 01:59:31;;;;;;;7.25;4.63;;;12.70;74.30;;;;;;6335781;22;20010;-68
2022/11/13 02:01:57;;;;;;;6.43;4.63;;;12.70;73.90;;;;;;6335868;22;20069;-68
2022/11/13 02:04:24;;;;;;;7.15;4.25;;;12.70;74.00;;;;;;6336782;22;20007;-68
2022/11/13 02:07:03;;;;;;;8.63;4.32;;;12.60;74.40;;;;;;6339119;22;20015;-68
2022/11/13 02:09:38;;;;;;;7.20;4.03;;;12.60;74.60;;;;;;6338965;22;19999;-68
2022/11/13 02:12:12;;;;;;;9.57;4.40;;;12.60;74.60;;;;;;6339135;22;19998;-68
2022/11/13 02:14:40;;;;;;;5.93;4.15;;;12.60;74.90;;;;;;6338487;22;19999;-68
2022/11/13 02:17:10;;;;;;;5.95;3.70;;;12.50;75.10;;;;;;6338986;22;20313;-68
2022/11/13 02:19:43;;;;;;;8.27;4.40;;;12.50;75.20;;;;;;6338631;22;19999;-68
2022/11/13 02:22:39;;;;;;;7.53;3.90;;;12.50;75.10;;;;;;6338707;22;20034;-68
2022/11/13 02:25:06;;;;;;;6.63;4.10;;;12.50;75.50;;;;;;6338948;22;20015;-68
2022/11/13 02:27:44;;;;;;;7.55;3.92;;;12.50;75.30;;;;;;6338606;22;20013;-67
2022/11/13 02:30:18;;;;;;;7.38;4.40;;;12.40;75.10;;;;;;6338723;22;20003;-68
2022/11/13 02:32:46;;;;;;;9.45;4.57;;;12.50;75.30;;;;;;6339185;22;20026;-68
2022/11/13 02:35:19;;;;;;;7.47;4.47;;;12.50;75.50;;;;;;6338926;22;20489;-68
2022/11/13 02:37:45;;;;;;;6.70;3.80;;;12.50;75.80;;;;;;6338734;22;20074;-68
2022/11/13 02:40:11;;;;;;;7.47;4.45;;;12.40;75.60;;;;;;6339238;22;20037;-68
2022/11/13 02:42:37;;;;;;;8.35;4.45;;;12.40;75.60;;;;;;6338745;22;20001;-68
2022/11/13 02:45:04;;;;;;;9.38;4.30;;;12.40;75.80;;;;;;6339050;22;20034;-68
2022/11/13 02:47:29;;;;;;;6.20;3.92;;;12.50;75.80;;;;;;6338837;22;20014;-68
2022/11/13 02:49:55;;;;;;;6.65;4.38;;;12.50;75.00;;;;;;6339285;22;20332;-68
2022/11/13 02:52:21;;;;;;;11.10;4.50;;;12.50;75.10;;;;;;6338977;22;20074;-68
2022/11/13 02:54:46;;;;;;;7.35;4.40;;;12.50;75.30;;;;;;6338832;22;19995;-68
2022/11/13 02:57:12;;;;;;;7.88;3.90;;;12.50;75.40;;;;;;6338938;22;20015;-68
2022/11/13 02:59:37;;;;;;;5.65;3.75;;;12.40;75.40;;;;;;6338902;22;20022;-68
2022/11/13 03:02:03;;;;;;;6.72;4.00;;;12.40;75.60;;;;;;6339261;22;20006;-68
2022/11/13 03:04:29;;;;;;;6.55;3.78;;;12.40;75.70;;;;;;6338670;22;20106;-68
2022/11/13 03:06:54;;;;;;;6.85;3.70;;;12.40;75.80;;;;;;6338886;22;20010;-68
2022/11/13 03:09:20;;;;;;;6.53;4.15;;;12.40;75.90;;;;;;6338870;22;20088;-68
2022/11/13 03:11:46;;;;;;;6.80;3.95;;;12.30;76.00;;;;;;6338543;22;20010;-68
2022/11/13 03:14:11;;;;;;;7.07;3.80;;;12.30;76.40;;;;;;6338632;22;19995;-68
2022/11/13 03:16:37;;;;;;;11.48;4.25;;;12.30;76.00;;;;;;6311049;22;20003;-68
2022/11/13 03:19:03;;;;;;;8.18;3.78;;;12.30;75.80;;;;;;6338555;22;20052;-68
2022/11/13 03:21:30;;;;;;;8.10;3.80;;;12.30;75.60;;;;;;6338728;22;20429;-68
2022/11/13 03:23:56;;;;;;;6.88;3.45;;;12.30;75.60;;;;;;6338587;22;20017;-68
2022/11/13 03:26:22;;;;;;;5.30;3.78;;;12.20;75.80;;;;;;6338723;22;19995;-68
2022/11/13 03:28:48;;;;;;;7.75;3.38;;;12.20;76.00;;;;;;6338701;22;20026;-68
2022/11/13 03:31:14;;;;;;;10.23;3.50;;;12.20;75.90;;;;;;6338466;22;20452;-68
2022/11/13 03:33:40;;;;;;;6.63;3.95;;;12.20;76.30;;;;;;6338586;22;19995;-68
2022/11/13 03:36:06;;;;;;;6.90;3.47;;;12.20;76.30;;;;;;6338676;22;20003;-68
2022/11/13 03:38:32;;;;;;;10.45;3.67;;;12.10;77.00;;;;;;6338517;22;20027;-68
2022/11/13 03:40:58;;;;;;;4.97;3.45;;;12.10;77.80;;;;;;6340263;22;19998;-68
2022/11/13 03:43:24;;;;;;;7.90;3.80;;;12.10;77.70;;;;;;6340863;22;20010;-68
2022/11/13 03:45:50;;;;;;;6.55;3.50;;;12.00;78.40;;;;;;6340495;22;20009;-68
2022/11/13 03:48:16;;;;;;;7.13;3.45;;;12.00;78.30;;;;;;6340169;22;20007;-68
2022/11/13 03:50:44;;;;;;;4.93;3.65;;;12.00;77.90;;;;;;6340405;22;20082;-68
2022/11/13 03:53:09;;;;;;;6.32;3.78;;;11.90;77.60;;;;;;6340463;22;20003;-68
2022/11/13 03:55:35;;;;;;;5.68;3.08;;;11.90;78.20;;;;;;6340468;22;20070;-68
2022/11/13 03:58:01;;;;;;;4.90;2.97;;;11.90;78.20;;;;;;6340210;22;20389;-68
2022/11/13 04:00:26;;;;;;;7.10;3.58;;;11.90;78.70;;;;;;6340165;22;20376;-68
2022/11/13 04:02:52;;;;;;;4.70;3.20;;;11.80;78.30;;;;;;6340315;22;20044;-68
2022/11/13 04:05:18;;;;;;;6.28;3.30;;;11.80;78.80;;;;;;6340699;22;20003;-68
2022/11/13 04:07:43;;;;;;;5.10;3.35;;;11.80;79.00;;;;;;6340174;22;20089;-68
2022/11/13 04:10:09;;;;;;;5.47;3.33;;;11.80;78.50;;;;;;6340024;22;20006;-68
2022/11/13 04:12:35;;;;;;;6.93;3.65;;;11.70;78.10;;;;;;6340383;22;19998;-68
2022/11/13 04:15:00;;;;;;;7.80;3.60;;;11.70;78.10;;;;;;6312851;22;20003;-68
2022/11/13 04:17:26;;;;;;;6.18;4.05;;;11.70;78.40;;;;;;6340227;22;20052;-68
2022/11/13 04:19:52;;;;;;;5.78;3.67;;;11.60;78.00;;;;;;6339854;22;19995;-68
2022/11/13 04:22:17;;;;;;;6.63;3.53;;;11.60;78.00;;;;;;6340195;22;20060;-70
2022/11/13 04:24:43;;;;;;;7.82;3.38;;;11.60;78.60;;;;;;6339830;22;20014;-69
2022/11/13 04:27:08;;;;;;;7.53;4.30;;;11.60;78.70;;;;;;6340285;22;20018;-68
2022/11/13 04:29:34;;;;;;;5.68;3.63;;;11.60;78.40;;;;;;6341060;22;19995;-68
2022/11/13 04:32:00;;;;;;;7.75;3.97;;;11.60;77.30;;;;;;6339992;22;20024;-68
2022/11/13 04:34:25;;;;;;;6.38;4.07;;;11.70;77.90;;;;;;6339737;22;20000;-68
2022/11/13 04:36:51;;;;;;;8.65;4.10;;;11.70;76.50;;;;;;6339884;22;19998;-68
2022/11/13 04:39:17;;;;;;;6.47;4.18;;;11.80;76.50;;;;;;6339907;22;20002;-68
2022/11/13 04:44:26;;;;;;;8.52;4.53;;;11.80;75.90;;;;;;6336375;22;20059;-68
2022/11/13 04:46:52;;;;;;;7.10;4.47;;;11.90;75.70;;;;;;6336300;22;20014;-68
2022/11/13 04:49:18;;;;;;;6.10;4.30;;;11.90;75.70;;;;;;6338949;22;20075;-68
2022/11/13 04:51:43;;;;;;;7.78;4.50;;;11.90;76.10;;;;;;6339255;22;20060;-68
2022/11/13 04:54:09;;;;;;;9.23;4.75;;;11.90;76.30;;;;;;6340063;22;19999;-68
2022/11/13 04:56:35;;;;;;;8.93;4.75;;;11.90;76.20;;;;;;6312506;22;20305;-68
2022/11/13 04:59:00;;;;;;;10.13;4.72;;;11.90;76.10;;;;;;6339989;22;20098;-68
2022/11/13 05:01:26;;;;;;;11.27;5.18;;;11.80;76.20;;;;;;6339720;22;20051;-68
2022/11/13 05:03:51;;;;;;;7.78;4.93;;;11.80;76.00;;;;;;6340205;22;20074;-68
2022/11/13 05:06:17;;;;;;;9.65;4.82;;;11.90;76.00;;;;;;6339862;22;20003;-70
2022/11/13 05:08:43;;;;;;;8.65;4.97;;;11.90;75.30;;;;;;6337131;22;20018;-69
2022/11/13 05:11:08;;;;;;;9.40;5.80;;;11.90;75.50;;;;;;6335829;22;20024;-69
2022/11/13 05:13:35;;;;;;;9.90;5.75;;;11.90;76.40;;;;;;6336375;22;20010;-68
2022/11/13 05:16:08;;;;;;;16.15;7.07;;;11.90;77.00;;;;;;6311893;22;20385;-68
2022/11/13 05:18:36;;;;;;;10.38;5.50;;;11.90;76.80;;;;;;6339510;22;20003;-68
2022/11/13 05:21:03;;;;;;;8.90;5.35;;;12.00;77.00;;;;;;6339646;22;20003;-68
2022/11/13 05:23:29;;;;;;;8.73;5.40;;;12.00;76.70;;;;;;6339261;22;20018;-68
2022/11/13 05:26:03;;;;;;;8.65;5.75;;;12.00;76.60;;;;;;6339439;22;20002;-69
2022/11/13 05:28:29;;;;;;;8.82;5.10;;;12.00;76.50;;;;;;6339332;22;20425;-68
2022/11/13 05:31:07;;;;;;;9.52;5.22;;;12.00;76.40;;;;;;6339257;22;20021;-68
2022/11/13 05:33:33;;;;;;;8.10;5.05;;;12.00;76.60;;;;;;6339778;22;20010;-69
2022/11/13 05:36:04;;;;;;;8.60;5.00;;;12.00;76.50;;;;;;6339477;22;19999;-68
2022/11/13 05:38:30;;;;;;;12.98;5.22;;;12.10;76.60;;;;;;6339066;22;19999;-69
2022/11/13 05:41:04;;;;;;;7.63;5.10;;;12.10;76.50;;;;;;6339564;22;20010;-68
2022/11/13 05:43:29;;;;;;;10.95;5.53;;;12.10;76.60;;;;;;6339364;22;20048;-69
2022/11/13 05:46:09;;;;;;;13.02;5.43;;;12.10;77.00;;;;;;6338939;22;20066;-68
2022/11/13 05:48:35;;;;;;;7.90;5.10;;;12.10;77.00;;;;;;6339250;22;20018;-68
2022/11/13 05:51:04;;;;;;;11.40;5.10;;;12.10;76.90;;;;;;6339310;22;19994;-68
2022/11/13 05:53:32;;;;;;;6.82;4.88;;;12.10;77.00;;;;;;6338672;22;20074;-68
2022/11/13 05:56:04;;;;;;;8.85;4.53;;;12.10;76.90;;;;;;6339021;22;20425;-67
2022/11/13 05:58:30;;;;;;;6.65;4.40;;;12.10;76.90;;;;;;6339375;22;20010;-68
2022/11/13 06:01:05;;;;;;;7.45;4.60;;;12.00;76.70;;;;;;6339186;22;20073;-68
2022/11/13 06:03:31;;;;;;;9.85;4.32;;;12.10;76.60;;;;;;6339238;22;20073;-68
2022/11/13 06:05:57;;;;;;;5.75;4.15;;;12.10;76.30;;;;;;6339098;22;20051;-68
2022/11/13 06:08:23;;;;;;;7.57;4.25;;;12.10;75.40;;;;;;6338670;22;20120;-68
2022/11/13 06:10:49;;;;;;;8.18;4.13;;;12.10;75.40;;;;;;6339096;22;20387;-68
2022/11/13 06:13:14;;;;;;;9.20;4.15;;;12.10;74.60;;;;;;6339598;22;20003;-68
2022/11/13 06:15:40;;;;;;;8.60;4.30;;;12.10;74.60;;;;;;6338865;22;20022;-68
2022/11/13 06:18:06;;;;;;;8.60;4.40;;;12.10;75.10;;;;;;6339173;22;19999;-68
2022/11/13 06:20:34;;;;;;;9.85;3.90;;;12.10;75.50;;;;;;6338929;22;20056;-68
2022/11/13 06:23:00;;;;;;;5.93;3.80;;;12.10;75.80;;;;;;6338536;22;20003;-68
2022/11/13 06:25:26;;;;;;;6.03;3.22;;;12.10;76.00;;;;;;6338901;22;20002;-68
2022/11/13 06:27:53;;;;;;;9.05;3.53;;;12.10;76.00;;;;;;6339020;22;20006;-68
2022/11/13 06:30:19;;;;;;;6.10;3.20;;;12.10;76.30;;;;;;6338627;22;20005;-68
2022/11/13 06:32:51;;;;;;;4.53;3.25;;;12.00;76.00;;;;;;6338517;22;20008;-69
2022/11/13 06:35:17;;;;;;;7.68;3.58;;;12.00;76.70;;;;;;6339300;22;20082;-68
2022/11/13 06:37:42;;;;;;;6.50;3.50;;;12.00;76.90;;;;;;6338731;22;20034;-68
2022/11/13 06:40:08;;;;;;;6.90;3.85;;;11.90;77.30;;;;;;6338697;22;20006;-68
2022/11/13 06:42:34;;;;;;;5.13;3.30;;;11.90;77.80;;;;;;6338878;22;20333;-68
2022/11/13 06:45:00;;;;;;;6.45;3.45;;;11.90;78.50;;;;;;6338350;22;19995;-68
2022/11/13 06:47:27;;;;;;;5.53;3.55;;;11.90;78.50;;;;;;6337887;22;20425;-68
2022/11/13 06:49:52;;;;;;;5.22;3.47;;;11.90;78.60;;;;;;6338301;22;20001;-68
2022/11/13 06:52:18;;;;;;;6.45;3.40;;;11.80;78.40;;;;;;6338521;22;20074;-68
2022/11/13 06:54:44;;;;;;;6.32;4.28;;;11.80;78.70;;;;;;6338113;22;20002;-68
2022/11/13 06:57:09;;;;;;;5.50;3.72;;;11.80;78.40;;;;;;6338562;22;19999;-68
2022/11/13 06:59:35;;;;;;;5.95;4.03;;;11.80;78.10;;;;;;6338570;22;20005;-68
2022/11/13 07:02:01;;;;;;;6.85;4.25;;;11.80;78.10;;;;;;6339032;22;20073;-68
2022/11/13 07:04:27;;;;;;;7.90;4.15;;;11.80;77.90;;;;;;6338399;22;19995;-68
2022/11/13 07:06:53;;;;;;;8.40;4.55;;;11.80;78.20;;;;;;6338532;22;20025;-68
2022/11/13 07:09:18;;;;;;;5.80;3.60;;;11.80;77.90;;;;;;6338273;22;20425;-69
2022/11/13 07:11:44;;;;;;;7.93;4.30;;;11.80;77.50;;;;;;6338503;22;19994;-68
2022/11/13 07:14:11;;;;;;;6.63;3.95;;;11.80;77.80;;;;;;6338165;22;20092;-68
2022/11/13 07:16:37;;;;;;;10.45;4.28;;;11.80;78.10;;;;;;6338155;22;20437;-68
2022/11/13 07:19:03;;;;;;;9.00;5.40;;;11.90;78.80;;;;;;6338382;22;20011;-69
2022/11/13 07:21:29;;;;;;;7.63;6.05;;;11.90;79.20;;;;;;6338095;22;19995;-67
2022/11/13 07:23:54;;;;;;;9.32;6.28;;;12.00;79.00;;;;;;6337329;22;20067;-68
2022/11/13 07:26:21;;;;;;;9.45;6.97;;;12.10;78.50;;;;;;6337817;22;20003;-68
2022/11/13 07:28:47;;;;;;;10.10;7.05;;;12.20;78.30;;;;;;6337817;22;20013;-68
2022/11/13 07:31:15;;;;;;;7.78;6.45;;;12.20;78.00;;;;;;6337559;22;20003;-68
2022/11/13 07:33:40;;;;;;;11.20;7.47;;;12.20;78.00;;;;;;6337665;22;20489;-71
2022/11/13 07:36:07;;;;;;;11.48;8.20;;;12.30;78.00;;;;;;6337978;22;20027;-69
2022/11/13 07:38:33;;;;;;;8.82;7.40;;;12.30;77.80;;;;;;6310624;22;20090;-69
2022/11/13 07:45:24;;;;;;;15.30;7.53;;;12.40;77.50;;;;;;5131120;27;20118;-69
2022/11/13 07:47:50;;;;;;;11.25;8.25;;;12.50;77.90;;;;;;5131052;28;20114;-73
2022/11/13 08:05:19;;;;;;;7.53;6.75;;;12.50;77.00;;;;;;5070142;28;20386;-68
2022/11/13 08:07:47;;;;;;;7.20;6.38;;;13.00;76.80;;;;;;5069353;28;20481;-70
2022/11/13 08:10:13;;;;;;;8.73;7.05;;;13.00;75.70;;;;;;5069496;28;20021;-70
2022/11/13 08:12:38;;;;;;;9.65;7.30;;;13.10;75.30;;;;;;5069303;28;20024;-71
2022/11/13 08:15:05;;;;;;;10.73;7.15;;;13.10;75.50;;;;;;5069584;28;20043;-70
2022/11/13 08:17:31;;;;;;;8.75;6.60;;;13.10;74.80;;;;;;5069690;28;20031;-72
2022/11/13 08:19:56;;;;;;;8.73;6.70;;;13.20;73.70;;;;;;5069682;28;20025;-70
2022/11/13 08:22:22;;;;;;;11.45;7.47;;;13.20;73.40;;;;;;5069749;28;20035;-69
2022/11/13 08:24:47;;;;;;;7.53;6.72;;;13.20;73.70;;;;;;5069908;28;20439;-69
2022/11/13 08:27:13;;;;;;;8.18;6.88;;;13.20;73.00;;;;;;5069595;28;20071;-69
2022/11/13 08:29:39;;;;;;;7.22;6.38;;;13.20;73.20;;;;;;5069483;28;20020;-73
2022/11/13 08:32:05;;;;;;;7.78;6.82;;;13.20;73.40;;;;;;5069549;28;20482;-69
2022/11/13 08:34:30;;;;;;;7.88;6.97;;;13.20;73.40;;;;;;5069308;28;20041;-72
2022/11/13 08:36:56;;;;;;;8.38;7.10;;;13.20;73.40;;;;;;5069652;28;20029;-69
2022/11/13 08:39:21;;;;;;;8.68;7.13;;;13.30;73.80;;;;;;5069074;28;20033;-69
2022/11/13 08:41:48;;;;;;;8.00;6.72;;;13.30;73.20;;;;;;5068634;28;20025;-70
2022/11/13 08:44:14;;;;;;;8.93;6.70;;;13.30;73.60;;;;;;5068687;28;20090;-70
2022/11/13 08:46:39;;;;;;;11.23;7.93;;;13.40;73.50;;;;;;5069232;28;20028;-69
2022/11/13 08:49:05;;;;;;;9.75;7.60;;;13.40;72.70;;;;;;5068867;28;20020;-69
2022/11/13 08:51:31;;;;;;;8.90;7.18;;;13.40;72.50;;;;;;5068582;28;20100;-69
2022/11/13 08:53:56;;;;;;;9.18;7.25;;;13.40;72.30;;;;;;5068565;28;20371;-68
2022/11/13 08:56:22;;;;;;;9.00;7.13;;;13.50;72.50;;;;;;5067824;28;20048;-66
2022/11/13 08:58:48;;;;;;;10.30;7.13;;;13.50;72.50;;;;;;5069060;28;20582;-66
2022/11/13 09:01:13;;;;;;;9.85;7.22;;;13.60;72.30;;;;;;5067549;28;20497;-66
2022/11/13 09:03:39;;;;;;;9.20;7.25;;;13.60;72.50;;;;;;5068818;28;20049;-66
2022/11/13 09:06:06;;;;;;;9.43;7.70;;;13.70;72.00;;;;;;5056325;28;20510;-66
2022/11/13 09:08:32;;;;;;;8.70;7.40;;;13.70;71.60;;;;;;5055079;28;20029;-67
2022/11/13 09:11:03;;;;;;;10.88;8.15;;;13.70;71.90;;;;;;5054837;28;20083;-67
2022/11/13 09:13:28;;;;;;;11.38;8.38;;;13.80;71.70;;;;;;5054868;28;20040;-69
2022/11/13 09:15:57;;;;;;;10.82;8.05;;;13.80;71.40;;;;;;5055064;28;20017;-71
2022/11/13 09:18:23;;;;;;;10.82;7.50;;;13.80;71.00;;;;;;5054855;28;20029;-71
2022/11/13 09:20:48;;;;;;;11.02;7.80;;;13.80;71.20;;;;;;5055142;28;20017;-69
2022/11/13 09:23:14;;;;;;;9.05;7.13;;;13.90;71.20;;;;;;5055448;28;20056;-69
2022/11/13 09:25:40;;;;;;;12.35;7.53;;;13.90;71.30;;;;;;5055193;28;20025;-70
2022/11/13 09:28:08;;;;;;;10.75;7.18;;;13.90;71.60;;;;;;5052712;28;20021;-69
2022/11/13 09:30:37;;;;;;;9.15;7.20;;;14.00;71.60;;;;;;5052303;28;20114;-69
2022/11/13 09:33:03;;;;;;;11.20;7.10;;;14.00;71.20;;;;;;5052451;28;20396;-70
2022/11/13 09:35:33;;;;;;;12.25;7.55;;;14.00;71.10;;;;;;5052281;28;20044;-69
2022/11/13 09:38:04;;;;;;;8.48;7.38;;;14.00;70.90;;;;;;5052744;28;20031;-69
2022/11/13 09:40:55;;;;;;;12.27;7.82;;;14.00;70.60;;;;;;5055230;28;20049;-70
2022/11/13 09:43:38;;;;;;;10.52;8.02;;;14.00;71.00;;;;;;5053907;28;20491;-70
2022/11/13 09:46:13;;;;;;;13.65;8.18;;;14.00;71.50;;;;;;5054878;28;20090;-70
2022/11/13 09:48:48;;;;;;;11.25;8.05;;;14.00;70.30;;;;;;5054624;28;20021;-69
2022/11/13 09:51:17;;;;;;;9.40;7.72;;;14.00;69.80;;;;;;5054360;28;20025;-69
2022/11/13 09:53:43;;;;;;;11.10;8.05;;;13.90;70.20;;;;;;5053316;28;20040;-69
2022/11/13 09:56:32;;;;;;;11.38;8.77;;;13.90;70.30;;;;;;5054211;28;20398;-66
2022/11/13 09:59:22;;;;;;;12.48;8.07;;;13.90;70.30;;;;;;5052285;28;20071;-69
2022/11/13 10:01:50;;;;;;;9.73;8.48;;;13.90;70.70;;;;;;5051795;28;20020;-69
2022/11/13 10:04:30;;;;;;;9.02;8.00;;;13.90;71.00;;;;;;5052340;28;20449;-70
2022/11/13 10:07:14;;;;;;;11.70;7.97;;;13.90;70.90;;;;;;5054623;28;20150;-69
2022/11/13 10:10:15;;;;;;;10.00;7.85;;;13.90;70.90;;;;;;5054671;28;20094;-69
2022/11/13 10:12:43;;;;;;;8.82;7.47;;;13.90;70.90;;;;;;5054293;28;20025;-70
2022/11/13 10:15:10;;;;;;;9.15;7.45;;;13.90;71.10;;;;;;5054230;28;20474;-68
2022/11/13 10:18:05;;;;;;;8.63;7.55;;;14.00;71.60;;;;;;5053058;28;20025;-69
2022/11/13 10:20:37;;;;;;;11.15;8.13;;;14.10;71.60;;;;;;5051939;28;20041;-69
2022/11/13 10:23:13;;;;;;;8.70;7.28;;;14.10;71.80;;;;;;5054172;28;20025;-69
2022/11/13 10:25:41;;;;;;;10.27;7.78;;;14.30;72.00;;;;;;5053666;28;20035;-69
2022/11/13 10:28:22;;;;;;;9.20;7.75;;;14.30;72.20;;;;;;5053453;28;20450;-69
2022/11/13 10:30:49;;;;;;;9.10;7.43;;;14.40;71.90;;;;;;5053921;28;20025;-72
2022/11/13 10:33:21;;;;;;;8.63;7.28;;;14.40;71.50;;;;;;5054224;28;20483;-72
2022/11/13 10:36:16;;;;;;;9.05;6.90;;;14.50;71.80;;;;;;5053700;28;20471;-73
2022/11/13 10:38:52;;;;;;;9.15;7.00;;;14.60;71.10;;;;;;5053328;28;20024;-77
2022/11/13 10:41:20;;;;;;;7.82;6.40;;;14.60;70.80;;;;;;5053915;28;20052;-70
2022/11/13 10:43:53;;;;;;;8.98;6.85;;;14.60;70.00;;;;;;5053682;28;20020;-72
2022/11/13 10:46:20;;;;;;;;;;;14.70;70.20;;;;;;5053742;28;20033;-72
2022/11/13 10:48:45;;;;;;;7.53;6.43;;;14.70;70.50;;;;;;5053536;28;20014;-72
2022/11/13 10:51:29;;;;;;;7.60;6.13;;;14.80;70.40;;;;;;5053540;28;20502;-73
2022/11/13 10:53:57;;;;;;;7.38;6.57;;;14.90;70.00;;;;;;5053560;28;20106;-70
2022/11/13 10:56:49;;;;;;;7.35;6.00;;;14.90;68.80;;;;;;5053692;28;20025;-74
2022/11/13 10:59:17;;;;;;;6.82;5.95;;;14.90;67.50;;;;;;5052311;28;20036;-72
2022/11/13 11:01:44;;;;;;;8.32;5.70;;;14.90;67.60;;;;;;5053446;28;20510;-72
2022/11/13 11:04:20;;;;;;;7.80;6.40;;;14.90;67.70;;;;;;5052736;28;20057;-72
2022/11/13 11:06:47;;;;;;;7.55;6.00;;;14.90;67.60;;;;;;5053020;28;20060;-73
2022/11/13 11:09:12;;;;;;;7.47;6.43;;;15.00;66.60;;;;;;5053176;28;20063;-73
2022/11/13 11:14:30;;;;;;;7.13;5.70;;;15.20;67.10;;;;;;5053141;28;20083;-73
2022/11/13 11:16:58;;;;;;;6.75;6.05;;;15.20;65.80;;;;;;5053269;28;20028;-70
2022/11/13 11:19:29;;;;;;;6.80;5.70;;;15.30;66.50;;;;;;5053286;28;20025;-72
2022/11/13 11:22:07;;;;;;;9.40;5.95;;;15.30;66.30;;;;;;5053082;28;20031;-72
2022/11/13 11:24:38;;;;;;;7.50;5.68;;;15.40;66.20;;;;;;5053009;28;20434;-71
2022/11/13 11:27:08;;;;;;;7.75;6.15;;;15.40;65.20;;;;;;5052964;28;20449;-76
2022/11/13 11:29:38;;;;;;;9.57;6.28;;;15.50;65.60;;;;;;5052713;28;20025;-73
2022/11/13 11:32:17;;;;;;;7.05;5.85;;;15.50;66.00;;;;;;5053048;28;20029;-72
2022/11/13 11:34:47;;;;;;;6.10;4.95;;;15.50;65.80;;;;;;5052840;28;20041;-72
2022/11/13 11:37:20;;;;;;;7.03;5.68;;;15.60;64.60;;;;;;5053050;28;20029;-72
2022/11/13 11:39:49;;;;;;;7.28;5.25;;;15.60;64.60;;;;;;5051966;28;20036;-74
2022/11/13 11:42:37;;;;;;;6.82;4.93;;;15.60;65.50;;;;;;5052899;28;20454;-72
2022/11/13 11:45:09;;;;;;;4.88;4.38;;;15.60;63.60;;;;;;5052986;28;20021;-73
2022/11/13 11:47:34;;;;;;;5.75;4.50;;;15.70;64.10;;;;;;5052560;28;20025;-72
2022/11/13 11:50:02;;;;;;;5.50;4.65;;;15.70;64.00;;;;;;5052044;28;20029;-73
2022/11/13 11:53:02;;;;;;;9.57;4.47;;;15.70;63.40;;;;;;5051983;28;20119;-73
2022/11/13 11:55:37;;;;;;;9.15;4.80;;;15.80;63.20;;;;;;5027593;28;20053;-72
2022/11/13 11:58:19;;;;;;;6.57;5.10;;;15.80;63.80;;;;;;5047751;28;20068;-72
2022/11/13 12:00:51;;;;;;;8.07;4.93;;;15.90;64.00;;;;;;5049827;28;20064;-73
2022/11/13 12:03:34;;;;;;;8.05;5.35;;;15.90;63.00;;;;;;5050604;28;20080;-72
2022/11/13 12:06:09;;;;;;;6.55;5.40;;;15.90;63.10;;;;;;5052664;28;20035;-71
2022/11/13 12:09:13;;;;;;;6.20;5.15;;;15.90;63.00;;;;;;5052573;28;20394;-71
2022/11/13 12:11:55;;;;;;;7.35;5.57;;;15.90;63.40;;;;;;5010484;28;20053;-72
2022/11/13 12:14:47;;;;;;;8.02;6.00;;;15.90;63.40;;;;;;5009308;28;20197;-72
2022/11/13 12:17:33;;;;;;;7.22;5.53;;;15.90;63.40;;;;;;5018456;28;20029;-72
2022/11/13 12:20:37;;;;;;;8.45;5.80;;;15.90;63.50;;;;;;5048495;28;20037;-72
2022/11/13 12:23:11;;;;;;;10.07;5.97;;;15.90;63.90;;;;;;5042489;28;20036;-72
2022/11/13 12:25:53;;;;;;;7.63;6.10;;;16.00;63.70;;;;;;5050409;28;20021;-72
2022/11/13 12:28:35;;;;;;;6.70;5.60;;;16.00;63.00;;;;;;5050561;28;20108;-72
2022/11/13 12:31:22;;;;;;;8.00;5.93;;;16.00;62.70;;;;;;5051139;28;20510;-72
2022/11/13 12:34:32;;;;;;;7.10;6.10;;;15.90;61.80;;;;;;5048997;28;20083;-72
2022/11/13 12:37:00;;;;;;;6.55;5.82;;;15.80;61.70;;;;;;5049097;28;20029;-72
2022/11/13 12:39:44;;;;;;;12.25;6.32;;;15.80;62.60;;;;;;5048933;28;20028;-72
2022/11/13 12:42:33;;;;;;;7.88;5.70;;;15.80;63.30;;;;;;5052997;28;20029;-72
2022/11/13 12:45:29;;;;;;;7.35;5.90;;;15.80;62.90;;;;;;5054200;28;20032;-71
2022/11/13 12:48:06;;;;;;;6.40;5.78;;;15.70;61.80;;;;;;5053796;28;20036;-70
2022/11/13 12:50:31;;;;;;;7.35;6.07;;;15.70;61.70;;;;;;5053336;28;20070;-71
2022/11/13 12:53:03;;;;;;;6.40;5.80;;;15.60;61.70;;;;;;5054541;28;20029;-72
2022/11/13 12:55:34;;;;;;;7.15;5.82;;;15.60;62.50;;;;;;5053066;28;20100;-72
2022/11/13 12:58:08;;;;;;;7.10;5.88;;;15.60;62.30;;;;;;5054867;28;20083;-72
2022/11/13 13:00:36;;;;;;;6.18;5.57;;;15.60;63.00;;;;;;5054879;28;20028;-71
2022/11/13 13:03:33;;;;;;;7.68;6.28;;;15.60;62.30;;;;;;5054093;28;20378;-72
2022/11/13 13:06:25;;;;;;;9.73;6.25;;;15.60;62.70;;;;;;5053941;28;20463;-71
2022/11/13 13:08:59;;;;;;;7.97;6.13;;;15.60;61.50;;;;;;5052385;28;20032;-72
2022/11/13 13:11:48;;;;;;;8.07;6.45;;;15.60;60.80;;;;;;5055212;28;20112;-72
2022/11/13 13:14:35;;;;;;;11.40;5.75;;;15.50;61.70;;;;;;5054942;28;20055;-74
2022/11/13 13:17:12;;;;;;;7.32;5.20;;;15.50;60.60;;;;;;5055363;28;20493;-71
2022/11/13 13:19:38;;;;;;;8.25;4.63;;;15.50;61.80;;;;;;5055123;28;20037;-74
2022/11/13 13:22:23;;;;;;;7.38;5.43;;;15.40;60.30;;;;;;5054713;28;20510;-73
2022/11/13 13:24:59;;;;;;;6.47;5.15;;;15.40;60.50;;;;;;5055332;28;20104;-72